CheckWX is a tool to help pilots better visualize weather data.  It is not intended as a substitute for an official pre-flight weather briefing.

20:31:38 UTC

KTOL TAF
Toledo Express Airport
Toledo, Ohio, USA
KTOL 221726Z 2218/2318 32015G25KT P6SM BKN040 FM230200 32012KT P6SM SKC

Mar-22@
18:00 UTC

Mar-22 @ 18:00 UTC

Mar-23@
02:00 UTC

Mar-23 @ 02:00 UTC

KTOL 221726Z 2218/2318 32015G25KT P6SM BKN040
Wind
  • 320° at 15 KTS
  • {Gusting to 25 KTS
Cloud Levels
  • Broken at 4,000' AGL

Mar-23@
02:00 UTC

Mar-23 @ 02:00 UTC

Mar-23@
18:00 UTC

Mar-23 @ 18:00 UTC

FM230200 32012KT P6SM SKC

From

From Standard forecast or significant change

Wind
  • 320° at 12 KTS
Cloud Levels
  • Clear skies